createdAt,value
2019-05-23T00:00:15.445Z,41.90
2019-05-23T00:01:15.245Z,41.00
2019-05-23T00:02:15.395Z,39.40
2019-05-23T00:03:15.247Z,48.00
2019-05-23T00:04:15.337Z,45.30
2019-05-23T00:05:15.216Z,46.40
2019-05-23T00:06:15.282Z,46.40
2019-05-23T00:07:15.179Z,44.30
2019-05-23T00:08:15.259Z,48.80
2019-05-23T00:09:15.186Z,48.80
2019-05-23T00:10:15.239Z,47.40
2019-05-23T00:11:15.164Z,47.30
2019-05-23T00:12:15.201Z,50.30
2019-05-23T00:13:15.106Z,47.00
2019-05-23T00:14:15.201Z,48.80
2019-05-23T00:15:15.145Z,48.90
2019-05-23T00:16:15.136Z,49.90
2019-05-23T00:17:15.074Z,49.90
2019-05-23T00:18:15.131Z,48.40
2019-05-23T00:19:15.054Z,49.30
2019-05-23T00:20:15.141Z,47.70
2019-05-23T00:21:15.056Z,47.20
2019-05-23T00:22:15.054Z,47.30
2019-05-23T00:23:15.021Z,46.20
2019-05-23T00:24:15.121Z,48.40
2019-05-23T00:25:15.022Z,49.90
2019-05-23T00:26:15.114Z,50.30
2019-05-23T00:27:14.971Z,52.30
2019-05-23T00:28:14.984Z,47.40
2019-05-23T00:29:14.936Z,50.80
2019-05-23T00:30:15.020Z,49.50
2019-05-23T00:31:14.933Z,54.30
2019-05-23T00:32:15.010Z,53.00
2019-05-23T00:33:14.897Z,49.30
2019-05-23T00:34:14.931Z,54.70
2019-05-23T00:35:14.879Z,52.80
2019-05-23T00:36:14.975Z,51.00
2019-05-23T00:37:14.861Z,54.40
2019-05-23T00:38:14.954Z,49.60
2019-05-23T00:39:14.896Z,52.50
2019-05-23T00:40:14.873Z,55.10
2019-05-23T00:41:14.839Z,53.80
2019-05-23T00:42:14.893Z,52.30
2019-05-23T00:43:14.779Z,52.20
2019-05-23T00:44:14.946Z,53.90
2019-05-23T00:45:14.786Z,55.90
2019-05-23T00:46:14.805Z,51.90
2019-05-23T00:47:14.763Z,52.90
2019-05-23T00:48:14.819Z,55.80
2019-05-23T00:49:14.721Z,56.60
2019-05-23T00:50:14.833Z,56.30
2019-05-23T00:51:14.713Z,57.90
2019-05-23T00:52:14.787Z,51.80
2019-05-23T00:53:14.676Z,57.70
2019-05-23T00:54:14.786Z,55.40
2019-05-23T00:55:14.648Z,59.10
2019-05-23T00:56:14.709Z,55.70
2019-05-23T00:57:14.625Z,62.20
2019-05-23T00:58:14.717Z,58.60
2019-05-23T00:59:26.486Z,57.20
2019-05-23T01:00:15.598Z,56.30
2019-05-23T01:01:14.706Z,54.40
2019-05-23T01:02:14.618Z,53.80
2019-05-23T01:03:14.620Z,51.10
2019-05-23T01:04:14.568Z,52.40
2019-05-23T01:05:14.648Z,58.20
2019-05-23T01:06:14.548Z,55.70
2019-05-23T01:07:14.669Z,57.10
2019-05-23T01:08:14.522Z,52.40
2019-05-23T01:09:14.551Z,65.00
2019-05-23T01:10:14.490Z,55.50
2019-05-23T01:11:14.599Z,59.10
2019-05-23T01:12:14.517Z,61.10
2019-05-23T01:13:14.595Z,60.70
2019-05-23T01:14:14.450Z,60.90
2019-05-23T01:15:14.495Z,61.80
2019-05-23T01:16:14.424Z,61.30
2019-05-23T01:17:14.563Z,63.20
2019-05-23T01:18:14.422Z,60.50
2019-05-23T01:19:14.431Z,68.50
2019-05-23T01:20:14.383Z,62.30
2019-05-23T01:21:14.466Z,64.20
2019-05-23T01:22:14.394Z,61.40
2019-05-23T01:23:14.486Z,63.10
2019-05-23T01:24:14.346Z,66.00
2019-05-23T01:25:14.375Z,64.30
2019-05-23T01:26:14.322Z,68.60
2019-05-23T01:27:14.391Z,63.50
2019-05-23T01:28:14.326Z,64.70
2019-05-23T01:29:14.402Z,69.70
2019-05-23T01:30:14.296Z,64.10
2019-05-23T01:31:14.316Z,68.10
2019-05-23T01:32:14.251Z,67.30
2019-05-23T01:33:14.371Z,68.60
2019-05-23T01:34:14.242Z,69.50
2019-05-23T01:35:14.336Z,67.80
2019-05-23T01:36:14.208Z,70.10
2019-05-23T01:37:14.251Z,68.30
2019-05-23T01:38:14.195Z,68.50
2019-05-23T01:39:14.291Z,68.10
2019-05-23T01:40:14.167Z,64.50
2019-05-23T01:41:14.327Z,62.70
2019-05-23T01:42:14.169Z,61.60
2019-05-23T01:43:14.213Z,63.60
2019-05-23T01:44:14.145Z,59.30
2019-05-23T01:45:14.234Z,58.30
2019-05-23T01:46:14.129Z,59.30
2019-05-23T01:47:14.204Z,64.00
2019-05-23T01:48:14.132Z,65.00
2019-05-23T01:49:14.130Z,62.20
2019-05-23T01:50:14.056Z,62.50
2019-05-23T01:51:14.173Z,63.90
2019-05-23T01:52:14.035Z,74.20
2019-05-23T01:53:14.064Z,68.50
2019-05-23T01:54:14.108Z,68.20
2019-05-23T01:55:14.061Z,68.60
2019-05-23T01:56:14.001Z,70.60
2019-05-23T01:57:14.098Z,71.20
2019-05-23T01:58:14.177Z,76.10
2019-05-23T01:59:13.980Z,69.40
2019-05-23T02:00:13.969Z,58.50
2019-05-23T02:01:14.004Z,60.30
2019-05-23T02:02:13.937Z,56.50
2019-05-23T02:03:14.006Z,59.20
2019-05-23T02:04:13.968Z,59.80
2019-05-23T02:05:13.969Z,56.10
2019-05-23T02:06:13.874Z,54.90
2019-05-23T02:07:13.940Z,55.30
2019-05-23T02:08:13.885Z,55.70
2019-05-23T02:09:13.993Z,60.30
2019-05-23T02:10:13.986Z,63.70
2019-05-23T02:11:13.867Z,64.50
2019-05-23T02:12:13.812Z,63.30
2019-05-23T02:13:13.881Z,63.40
2019-05-23T02:14:13.830Z,60.00
2019-05-23T02:15:13.891Z,58.70
2019-05-23T02:16:13.799Z,58.20
2019-05-23T02:17:13.816Z,56.90
2019-05-23T02:18:13.745Z,57.40
2019-05-23T02:19:13.990Z,55.60
2019-05-23T02:20:13.724Z,58.40
2019-05-23T02:21:13.830Z,63.80
2019-05-23T02:22:13.706Z,60.00
2019-05-23T02:23:13.748Z,57.70
2019-05-23T02:24:13.711Z,57.50
2019-05-23T02:25:13.761Z,57.30
2019-05-23T02:26:13.658Z,61.10
2019-05-23T02:27:13.774Z,62.20
2019-05-23T02:28:13.655Z,60.90
2019-05-23T02:29:13.707Z,61.30
2019-05-23T02:30:32.103Z,64.00
2019-05-23T02:31:14.618Z,63.10
2019-05-23T02:32:13.701Z,60.30
2019-05-23T02:33:13.590Z,59.40
2019-05-23T02:34:13.641Z,55.40
2019-05-23T02:35:13.556Z,56.70
2019-05-23T02:36:13.625Z,56.70
2019-05-23T02:37:13.551Z,60.00
2019-05-23T02:38:13.640Z,59.00
2019-05-23T02:39:13.521Z,60.80
2019-05-23T02:40:13.581Z,62.70
2019-05-23T02:41:13.501Z,60.20
2019-05-23T02:42:13.577Z,64.00
2019-05-23T02:43:13.479Z,64.70
2019-05-23T02:44:13.584Z,69.20
2019-05-23T02:45:13.571Z,66.80
2019-05-23T02:46:13.492Z,65.90
2019-05-23T02:47:13.444Z,67.50
2019-05-23T02:48:13.501Z,63.10
2019-05-23T02:49:13.412Z,65.20
2019-05-23T02:50:13.549Z,63.40
2019-05-23T02:51:13.386Z,59.70
2019-05-23T02:52:13.424Z,58.80
2019-05-23T02:53:13.384Z,62.80
2019-05-23T02:54:13.466Z,62.70
2019-05-23T02:55:13.384Z,63.90
2019-05-23T02:56:13.463Z,63.70
2019-05-23T02:57:13.358Z,66.80
2019-05-23T02:58:13.365Z,67.70
2019-05-23T02:59:13.307Z,58.50
2019-05-23T03:00:13.419Z,55.60
2019-05-23T03:01:13.282Z,55.30
2019-05-23T03:02:13.295Z,53.20
2019-05-23T03:03:13.268Z,68.90
2019-05-23T03:04:13.313Z,59.50
2019-05-23T03:05:13.268Z,60.80
2019-05-23T03:06:13.324Z,62.50
2019-05-23T03:07:13.223Z,64.90
2019-05-23T03:08:13.232Z,68.10
2019-05-23T03:09:13.203Z,67.80
2019-05-23T03:10:13.300Z,69.80
2019-05-23T03:11:13.211Z,70.60
2019-05-23T03:12:13.362Z,66.80
2019-05-23T03:13:13.154Z,73.70
2019-05-23T03:14:13.175Z,73.80
2019-05-23T03:15:13.141Z,68.80
2019-05-23T03:16:13.221Z,71.50
2019-05-23T03:17:13.110Z,73.50
2019-05-23T03:18:13.203Z,74.20
2019-05-23T03:19:13.087Z,75.30
2019-05-23T03:20:13.145Z,69.30
2019-05-23T03:21:13.108Z,68.50
2019-05-23T03:22:13.132Z,71.90
2019-05-23T03:23:13.074Z,75.00
2019-05-23T03:24:13.147Z,70.30
2019-05-23T03:25:13.027Z,69.90
2019-05-23T03:26:13.086Z,69.00
2019-05-23T03:27:13.001Z,73.70
2019-05-23T03:28:13.068Z,75.10
2019-05-23T03:29:12.986Z,69.50
2019-05-23T03:30:13.127Z,68.20
2019-05-23T03:31:28.442Z,68.60
2019-05-23T03:32:13.967Z,66.90
2019-05-23T03:33:13.022Z,67.60
2019-05-23T03:34:12.925Z,63.50
2019-05-23T03:35:13.070Z,61.60
2019-05-23T03:36:12.941Z,65.40
2019-05-23T03:37:12.965Z,67.90
2019-05-23T03:38:12.876Z,64.30
2019-05-23T03:39:12.937Z,68.20
2019-05-23T03:40:12.856Z,69.10
2019-05-23T03:41:12.984Z,61.40
2019-05-23T03:42:12.877Z,60.30
2019-05-23T03:43:12.869Z,63.50
2019-05-23T03:44:12.830Z,74.70
2019-05-23T03:45:12.891Z,73.60
2019-05-23T03:46:12.806Z,72.90
2019-05-23T03:47:12.930Z,68.00
2019-05-23T03:48:12.783Z,66.50
2019-05-23T03:49:12.807Z,68.00
2019-05-23T03:50:12.755Z,71.00
2019-05-23T03:51:12.826Z,66.60
2019-05-23T03:52:12.769Z,67.40
2019-05-23T03:53:12.843Z,68.40
2019-05-23T03:54:12.707Z,67.10
2019-05-23T03:55:12.760Z,72.90
2019-05-23T03:56:12.684Z,69.30
2019-05-23T03:57:12.802Z,73.80
2019-05-23T03:58:12.705Z,74.60
2019-05-23T03:59:12.775Z,70.60
2019-05-23T04:00:12.646Z,81.80
2019-05-23T04:01:12.700Z,75.10
2019-05-23T04:02:12.636Z,74.40
2019-05-23T04:03:12.713Z,66.00
2019-05-23T04:04:12.626Z,65.00
2019-05-23T04:05:12.726Z,64.80
2019-05-23T04:06:12.580Z,59.50
2019-05-23T04:07:12.657Z,64.20
2019-05-23T04:08:12.578Z,65.50
2019-05-23T04:09:13.589Z,62.40
2019-05-23T04:10:12.538Z,65.40
2019-05-23T04:11:12.551Z,66.10
2019-05-23T04:12:12.524Z,70.90
2019-05-23T04:13:12.711Z,70.80
2019-05-23T04:14:12.488Z,76.10
2019-05-23T04:15:12.588Z,76.60
2019-05-23T04:16:12.477Z,77.80
2019-05-23T04:17:12.537Z,76.50
2019-05-23T04:18:12.442Z,75.20
2019-05-23T04:19:12.538Z,66.90
2019-05-23T04:20:12.444Z,79.30
2019-05-23T04:21:12.529Z,90.00
2019-05-23T04:22:12.451Z,73.80
2019-05-23T04:23:12.464Z,79.90
2019-05-23T04:24:12.378Z,75.60
2019-05-23T04:25:12.451Z,70.50
2019-05-23T04:26:12.381Z,77.50
2019-05-23T04:27:12.469Z,72.60
2019-05-23T04:28:12.365Z,73.70
2019-05-23T04:29:12.403Z,79.00
2019-05-23T04:30:12.333Z,86.50
2019-05-23T04:31:13.390Z,73.70
2019-05-23T04:32:12.290Z,73.30
2019-05-23T04:33:12.429Z,77.60
2019-05-23T04:34:12.265Z,70.20
2019-05-23T04:35:12.346Z,71.50
2019-05-23T04:36:12.263Z,71.20
2019-05-23T04:37:12.325Z,76.90
2019-05-23T04:38:12.251Z,65.30
2019-05-23T04:39:12.649Z,79.90
2019-05-23T04:40:12.239Z,71.10
2019-05-23T04:41:12.290Z,76.70
2019-05-23T04:42:12.180Z,74.60
2019-05-23T04:43:12.293Z,78.10
2019-05-23T04:44:12.167Z,77.50
2019-05-23T04:45:12.173Z,72.90
2019-05-23T04:46:12.138Z,67.70
2019-05-23T04:47:12.183Z,64.60
2019-05-23T04:48:12.160Z,68.80
2019-05-23T04:49:12.222Z,75.20
2019-05-23T04:50:12.109Z,72.30
2019-05-23T04:51:12.223Z,72.90
2019-05-23T04:52:12.074Z,69.80
2019-05-23T04:53:12.154Z,75.30
2019-05-23T04:54:12.132Z,71.10
2019-05-23T04:55:12.153Z,68.90
2019-05-23T04:56:12.049Z,74.30
2019-05-23T04:57:12.051Z,78.00
2019-05-23T04:58:12.263Z,74.20
2019-05-23T04:59:12.097Z,78.60
2019-05-23T05:00:12.004Z,73.70
2019-05-23T05:01:12.085Z,71.00
2019-05-23T05:02:25.696Z,69.10
2019-05-23T05:03:12.958Z,65.30
2019-05-23T05:04:12.057Z,75.80
2019-05-23T05:05:11.969Z,71.90
2019-05-23T05:06:12.009Z,72.60
2019-05-23T05:07:12.046Z,69.20
2019-05-23T05:08:12.189Z,69.20
2019-05-23T05:09:11.939Z,71.60
2019-05-23T05:10:12.019Z,72.60
2019-05-23T05:11:11.876Z,74.20
2019-05-23T05:12:11.981Z,75.80
2019-05-23T05:13:11.871Z,68.60
2019-05-23T05:14:11.892Z,68.10
2019-05-23T05:15:11.929Z,73.40
2019-05-23T05:16:11.875Z,73.00
2019-05-23T05:17:11.800Z,73.20
2019-05-23T05:18:11.901Z,68.30
2019-05-23T05:19:11.792Z,70.90
2019-05-23T05:20:11.846Z,70.50
2019-05-23T05:21:11.780Z,71.70
2019-05-23T05:22:11.846Z,72.90
2019-05-23T05:23:11.749Z,70.80
2019-05-23T05:24:12.156Z,68.30
2019-05-23T05:25:11.753Z,68.90
2019-05-23T05:26:11.762Z,69.20
2019-05-23T05:27:11.693Z,66.90
2019-05-23T05:28:11.765Z,73.40
2019-05-23T05:29:11.682Z,67.50
2019-05-23T05:30:11.829Z,73.60
2019-05-23T05:31:11.662Z,73.10
2019-05-23T05:32:11.699Z,72.40
2019-05-23T05:33:11.628Z,70.10
2019-05-23T05:34:11.713Z,66.80
2019-05-23T05:35:11.680Z,71.80
2019-05-23T05:36:11.759Z,68.60
2019-05-23T05:37:11.605Z,70.40
2019-05-23T05:38:11.634Z,66.80
2019-05-23T05:39:11.574Z,71.50
2019-05-23T05:40:11.686Z,64.60
2019-05-23T05:41:11.552Z,64.20
2019-05-23T05:42:11.658Z,62.80
2019-05-23T05:43:11.514Z,64.00
2019-05-23T05:44:12.009Z,62.90
2019-05-23T05:45:11.677Z,64.60
2019-05-23T05:46:11.630Z,65.80
2019-05-23T05:47:11.506Z,63.50
2019-05-23T05:48:11.592Z,62.40
2019-05-23T05:49:11.445Z,61.50
2019-05-23T05:50:11.539Z,59.70
2019-05-23T05:51:11.471Z,63.70
2019-05-23T05:52:11.535Z,63.20
2019-05-23T05:53:11.424Z,59.80
2019-05-23T05:54:11.473Z,59.40
2019-05-23T05:55:11.409Z,61.40
2019-05-23T05:56:11.511Z,59.90
2019-05-23T05:57:11.378Z,55.90
2019-05-23T05:58:11.464Z,56.80
2019-05-23T05:59:11.361Z,63.90
2019-05-23T06:00:12.978Z,58.20
2019-05-23T06:01:11.399Z,55.40
2019-05-23T06:02:11.401Z,53.10
2019-05-23T06:03:11.366Z,54.90
2019-05-23T06:04:11.510Z,63.20
2019-05-23T06:05:11.285Z,59.20
2019-05-23T06:06:11.356Z,56.60
2019-05-23T06:07:11.253Z,57.00
2019-05-23T06:08:11.330Z,58.30
2019-05-23T06:09:11.244Z,54.00
2019-05-23T06:10:11.344Z,50.50
2019-05-23T06:11:11.261Z,53.70
2019-05-23T06:13:12.358Z,53.30
2019-05-23T06:14:11.268Z,47.80
2019-05-23T06:15:11.175Z,50.20
2019-05-23T06:16:11.325Z,48.70
2019-05-23T06:17:11.147Z,47.70
2019-05-23T06:18:11.152Z,47.40
2019-05-23T06:19:11.127Z,49.40
2019-05-23T06:20:11.235Z,52.20
2019-05-23T06:21:11.240Z,47.00
2019-05-23T06:22:11.249Z,48.20
2019-05-23T06:23:11.090Z,47.40
2019-05-23T06:24:11.133Z,48.10
2019-05-23T06:25:11.394Z,52.10
2019-05-23T06:26:11.155Z,48.00
2019-05-23T06:27:11.072Z,49.10
2019-05-23T06:28:11.053Z,47.80
2019-05-23T06:29:11.019Z,44.50
2019-05-23T06:30:11.075Z,44.60
2019-05-23T06:31:11.030Z,43.90
2019-05-23T06:32:11.113Z,47.00
2019-05-23T06:33:22.608Z,45.50
2019-05-23T06:34:11.953Z,47.70
2019-05-23T06:35:11.122Z,43.90
2019-05-23T06:36:10.963Z,41.70
2019-05-23T06:37:11.055Z,42.50
2019-05-23T06:38:10.957Z,44.70
2019-05-23T06:39:11.052Z,44.80
2019-05-23T06:40:10.892Z,40.70
2019-05-23T06:41:11.068Z,43.20
2019-05-23T06:42:10.901Z,43.70
2019-05-23T06:43:10.986Z,44.10
2019-05-23T06:44:10.856Z,40.10
2019-05-23T06:45:11.047Z,40.70
2019-05-23T06:46:10.833Z,42.00
2019-05-23T06:47:10.890Z,42.00
2019-05-23T06:48:10.831Z,42.10
2019-05-23T06:49:10.890Z,41.30
2019-05-23T06:50:10.793Z,36.20
2019-05-23T06:51:10.866Z,40.60
2019-05-23T06:52:10.812Z,38.10
2019-05-23T06:53:10.850Z,38.50
2019-05-23T06:54:10.740Z,39.80
2019-05-23T06:55:10.838Z,36.40
2019-05-23T06:56:10.717Z,41.50
2019-05-23T06:57:10.775Z,35.90
2019-05-23T06:58:10.724Z,36.10
2019-05-23T06:59:10.748Z,33.50
2019-05-23T07:00:10.691Z,36.70
2019-05-23T07:01:10.772Z,34.70
2019-05-23T07:02:10.653Z,34.80
2019-05-23T07:03:10.802Z,32.30
2019-05-23T07:04:10.645Z,32.70
2019-05-23T07:05:10.797Z,33.70
2019-05-23T07:06:10.620Z,32.50
2019-05-23T07:07:10.713Z,32.30
2019-05-23T07:08:10.617Z,32.50
2019-05-23T07:09:10.617Z,33.70
2019-05-23T07:10:10.591Z,32.40
2019-05-23T07:11:10.654Z,32.20
2019-05-23T07:12:10.554Z,30.50
2019-05-23T07:13:10.693Z,28.40
2019-05-23T07:14:10.531Z,29.50
2019-05-23T07:15:10.557Z,31.50
2019-05-23T07:16:10.515Z,29.60
2019-05-23T07:17:10.677Z,30.10
2019-05-23T07:18:10.544Z,32.10
2019-05-23T07:19:10.630Z,30.20
2019-05-23T07:20:10.469Z,30.10
2019-05-23T07:21:10.509Z,30.40
2019-05-23T07:22:10.477Z,30.20
2019-05-23T07:23:10.513Z,30.30
2019-05-23T07:24:10.438Z,31.50
2019-05-23T07:25:10.560Z,29.20
2019-05-23T07:26:10.410Z,29.40
2019-05-23T07:27:10.443Z,31.00
2019-05-23T07:28:10.390Z,27.80
2019-05-23T07:29:10.512Z,30.30
2019-05-23T07:30:10.353Z,30.40
2019-05-23T07:31:10.363Z,30.50
2019-05-23T07:32:10.328Z,32.40
2019-05-23T07:33:10.415Z,29.60
2019-05-23T07:34:10.384Z,29.90
2019-05-23T07:35:10.398Z,30.60
2019-05-23T07:36:10.297Z,31.30
2019-05-23T07:37:10.426Z,28.80
2019-05-23T07:38:10.266Z,32.70
2019-05-23T07:39:11.618Z,31.80
2019-05-23T07:40:10.272Z,31.00
2019-05-23T07:41:10.363Z,31.10
2019-05-23T07:42:10.228Z,28.40
2019-05-23T07:43:10.253Z,31.50
2019-05-23T07:44:10.280Z,30.80
2019-05-23T07:45:10.262Z,31.20
2019-05-23T07:46:10.178Z,30.20
2019-05-23T07:47:10.273Z,32.60
2019-05-23T07:48:10.167Z,30.80
2019-05-23T07:49:10.240Z,31.10
2019-05-23T07:50:10.132Z,33.00
2019-05-23T07:51:10.234Z,31.30
2019-05-23T07:52:10.152Z,30.40
2019-05-23T07:53:10.207Z,31.30
2019-05-23T07:54:10.151Z,33.60
2019-05-23T07:55:10.187Z,30.30
2019-05-23T07:56:10.090Z,32.30
2019-05-23T07:57:10.151Z,31.50
2019-05-23T07:58:13.454Z,35.90
2019-05-23T07:59:10.144Z,34.20
2019-05-23T08:00:10.050Z,34.60
2019-05-23T08:01:10.089Z,30.70
2019-05-23T08:02:09.996Z,33.20
2019-05-23T08:03:10.075Z,32.90
2019-05-23T08:04:21.031Z,33.80
2019-05-23T08:05:10.996Z,31.50
2019-05-23T08:06:10.003Z,32.80
2019-05-23T08:07:09.949Z,32.50
2019-05-23T08:08:10.207Z,30.10
2019-05-23T08:09:09.917Z,33.70
2019-05-23T08:10:10.063Z,30.90
2019-05-23T08:11:09.931Z,33.50
2019-05-23T08:12:10.057Z,32.70
2019-05-23T08:13:09.903Z,32.30
2019-05-23T08:14:11.971Z,30.60
2019-05-23T08:15:09.895Z,30.50
2019-05-23T08:16:09.980Z,31.40
2019-05-23T08:17:09.832Z,37.00
2019-05-23T08:18:09.871Z,31.90
2019-05-23T08:19:09.858Z,32.80
2019-05-23T08:20:09.960Z,30.40
2019-05-23T08:21:09.823Z,29.90
2019-05-23T08:22:09.909Z,30.80
2019-05-23T08:23:09.772Z,29.00
2019-05-23T08:24:09.810Z,30.90
2019-05-23T08:25:09.777Z,31.30
2019-05-23T08:26:09.868Z,35.80
2019-05-23T08:27:09.730Z,33.90
2019-05-23T08:28:09.844Z,34.50
2019-05-23T08:29:25.418Z,28.30
2019-05-23T08:30:10.747Z,32.70
2019-05-23T08:31:09.800Z,31.00
2019-05-23T08:32:09.669Z,34.90
2019-05-23T08:33:09.792Z,30.10
2019-05-23T08:34:09.673Z,31.20
2019-05-23T08:35:09.691Z,31.90
2019-05-23T08:36:09.663Z,33.10
2019-05-23T08:37:09.699Z,29.80
2019-05-23T08:38:09.598Z,34.30
2019-05-23T08:39:09.720Z,26.50
2019-05-23T08:40:09.577Z,25.60
2019-05-23T08:41:09.699Z,28.70
2019-05-23T08:42:09.598Z,27.70
2019-05-23T08:43:09.635Z,31.60
2019-05-23T08:44:11.575Z,29.70
2019-05-23T08:45:09.653Z,29.70
2019-05-23T08:46:09.537Z,28.30
2019-05-23T08:47:09.561Z,22.90
2019-05-23T08:48:09.501Z,22.80
2019-05-23T08:49:09.575Z,17.90
2019-05-23T08:50:09.470Z,20.00
2019-05-23T08:51:09.520Z,16.60
2019-05-23T08:52:09.459Z,19.80
2019-05-23T08:53:09.504Z,19.20
2019-05-23T08:54:09.458Z,18.30
2019-05-23T08:55:09.518Z,19.90
2019-05-23T08:56:18.486Z,18.20
2019-05-23T08:57:10.409Z,23.60
2019-05-23T08:58:09.451Z,23.50
2019-05-23T08:59:09.427Z,21.30
2019-05-23T09:00:09.451Z,23.20
2019-05-23T09:01:09.396Z,24.90
2019-05-23T09:02:09.456Z,21.40
2019-05-23T09:03:09.347Z,21.40
2019-05-23T09:04:09.369Z,22.20
2019-05-23T09:05:09.311Z,24.80
2019-05-23T09:06:09.442Z,22.80
2019-05-23T09:07:09.295Z,28.10
2019-05-23T09:08:09.296Z,21.80
2019-05-23T09:09:27.899Z,22.30
2019-05-23T09:10:10.250Z,23.60
2019-05-23T09:11:09.333Z,20.90
2019-05-23T09:12:09.259Z,20.50
2019-05-23T09:13:09.331Z,20.70
2019-05-23T09:14:09.223Z,21.60
2019-05-23T09:15:10.312Z,18.80
2019-05-23T09:16:09.190Z,17.80
2019-05-23T09:17:09.405Z,13.10
2019-05-23T09:18:09.163Z,12.70
2019-05-23T09:19:09.286Z,12.80
2019-05-23T09:20:09.201Z,10.70
2019-05-23T09:21:09.179Z,11.70
2019-05-23T09:22:09.155Z,10.60
2019-05-23T09:23:09.198Z,11.30
2019-05-23T09:24:09.113Z,9.90
2019-05-23T09:25:09.210Z,11.20
2019-05-23T09:26:09.082Z,11.00
2019-05-23T09:27:09.502Z,15.90
2019-05-23T09:28:09.064Z,17.80
2019-05-23T09:29:09.133Z,15.90
2019-05-23T09:30:09.037Z,15.00
2019-05-23T09:31:09.152Z,16.40
2019-05-23T09:32:09.065Z,15.80
2019-05-23T09:33:09.063Z,15.00
2019-05-23T09:34:08.988Z,15.60
2019-05-23T09:35:20.570Z,15.60
2019-05-23T09:36:09.969Z,15.80
2019-05-23T09:37:09.026Z,10.20
2019-05-23T09:38:08.983Z,8.50
2019-05-23T09:39:09.062Z,12.70
2019-05-23T09:40:08.929Z,9.70
2019-05-23T09:41:09.035Z,8.80
2019-05-23T09:42:12.060Z,11.30
2019-05-23T09:43:08.952Z,9.20
2019-05-23T09:44:08.879Z,10.10
2019-05-23T09:45:08.954Z,9.50
2019-05-23T09:46:08.860Z,8.90
2019-05-23T09:47:08.999Z,8.70
2019-05-23T09:48:08.895Z,9.90
2019-05-23T09:49:11.335Z,8.80
2019-05-23T09:50:08.821Z,9.40
2019-05-23T09:51:08.917Z,12.70
2019-05-23T09:52:09.603Z,10.10
2019-05-23T09:53:08.938Z,11.00
2019-05-23T09:54:08.780Z,9.80
2019-05-23T09:55:08.860Z,13.40
2019-05-23T09:56:08.758Z,12.60
2019-05-23T09:57:08.969Z,11.30
2019-05-23T09:58:08.849Z,11.70
2019-05-23T09:59:08.835Z,14.10
2019-05-23T10:00:08.767Z,12.90
2019-05-23T10:01:08.795Z,10.10
2019-05-23T10:02:08.696Z,11.50
2019-05-23T10:03:08.819Z,11.40
2019-05-23T10:04:08.763Z,10.80
2019-05-23T10:05:08.839Z,12.20
2019-05-23T10:06:08.645Z,9.50
2019-05-23T10:07:08.733Z,12.60
2019-05-23T10:08:08.823Z,11.80
2019-05-23T10:09:08.701Z,12.60
2019-05-23T10:10:08.689Z,14.00
2019-05-23T10:11:08.710Z,15.60
2019-05-23T10:12:08.632Z,12.00
2019-05-23T10:13:08.729Z,14.80
2019-05-23T10:14:08.566Z,12.10
2019-05-23T10:15:08.643Z,14.70
2019-05-23T10:16:08.614Z,11.60
2019-05-23T10:17:08.550Z,11.80
2019-05-23T10:18:08.748Z,13.80
2019-05-23T10:19:08.569Z,12.40
2019-05-23T10:20:08.536Z,13.60
2019-05-23T10:21:08.587Z,12.20
2019-05-23T10:22:08.472Z,12.80
2019-05-23T10:23:08.812Z,11.10
2019-05-23T10:24:08.508Z,12.80
2019-05-23T10:25:08.524Z,13.00
2019-05-23T10:26:08.467Z,12.90
2019-05-23T10:27:08.516Z,10.90
2019-05-23T10:28:08.467Z,12.90
2019-05-23T10:29:08.497Z,13.10
2019-05-23T10:30:08.415Z,13.90
2019-05-23T10:31:08.449Z,12.00
2019-05-23T10:32:08.375Z,14.40
2019-05-23T10:34:09.526Z,11.50
2019-05-23T10:35:08.404Z,15.00
2019-05-23T10:36:08.315Z,12.20
2019-05-23T10:37:08.384Z,11.10
2019-05-23T10:38:08.304Z,14.30
2019-05-23T10:39:08.428Z,13.80
2019-05-23T10:40:08.280Z,13.50
2019-05-23T10:41:08.431Z,10.80
2019-05-23T10:42:08.298Z,11.20
2019-05-23T10:43:08.332Z,13.80
2019-05-23T10:44:08.233Z,9.60
2019-05-23T10:45:08.408Z,11.40
2019-05-23T10:46:08.248Z,12.70
2019-05-23T10:47:08.256Z,9.80
2019-05-23T10:48:08.185Z,9.90
2019-05-23T10:49:08.298Z,10.70
2019-05-23T10:50:09.947Z,12.80
2019-05-23T10:51:08.482Z,12.40
2019-05-23T10:52:08.141Z,11.40
2019-05-23T10:53:08.190Z,9.50
2019-05-23T10:54:08.154Z,10.00
2019-05-23T10:55:08.238Z,9.20
2019-05-23T10:56:08.109Z,11.90
2019-05-23T10:57:08.248Z,9.00
2019-05-23T10:58:08.106Z,10.60
2019-05-23T10:59:08.285Z,11.00
2019-05-23T11:00:08.070Z,8.70
2019-05-23T11:01:08.455Z,11.00
2019-05-23T11:02:08.042Z,10.70
2019-05-23T11:03:08.059Z,8.30
2019-05-23T11:04:08.185Z,8.60
2019-05-23T11:05:12.732Z,9.00
2019-05-23T11:06:16.363Z,9.40
2019-05-23T11:07:09.005Z,8.90
2019-05-23T11:08:07.966Z,8.80
2019-05-23T11:09:08.032Z,10.50
2019-05-23T11:10:07.985Z,10.00
2019-05-23T11:11:08.025Z,11.70
2019-05-23T11:12:08.343Z,10.30
2019-05-23T11:13:08.032Z,10.60
2019-05-23T11:14:08.867Z,8.60
2019-05-23T11:15:08.991Z,9.80
2019-05-23T11:16:07.904Z,10.00
2019-05-23T11:17:07.974Z,8.70
2019-05-23T11:18:07.874Z,8.50
2019-05-23T11:19:07.991Z,10.40
2019-05-23T11:20:07.878Z,10.30
2019-05-23T11:21:08.008Z,10.80
2019-05-23T11:22:07.834Z,9.90
2019-05-23T11:23:07.993Z,7.90
2019-05-23T11:24:07.817Z,9.40
2019-05-23T11:25:08.070Z,10.20
2019-05-23T11:26:07.793Z,8.70
2019-05-23T11:27:07.853Z,10.80
2019-05-23T11:28:07.891Z,8.40
2019-05-23T11:30:08.915Z,10.40
2019-05-23T11:31:07.873Z,10.50
2019-05-23T11:32:07.733Z,8.30
2019-05-23T11:33:07.754Z,9.90
2019-05-23T11:34:07.726Z,8.30
2019-05-23T11:35:07.777Z,8.80
2019-05-23T11:36:07.715Z,9.10
2019-05-23T11:37:07.791Z,8.40
2019-05-23T11:38:07.676Z,10.20
2019-05-23T11:39:07.702Z,8.10
2019-05-23T11:40:07.633Z,9.80
2019-05-23T11:41:07.748Z,7.60
2019-05-23T11:42:07.610Z,8.10
2019-05-23T11:43:07.748Z,8.60
2019-05-23T11:44:07.612Z,10.70
2019-05-23T11:46:08.751Z,9.20
2019-05-23T11:47:07.792Z,8.80
2019-05-23T11:48:07.664Z,9.60
2019-05-23T11:49:07.707Z,10.30
2019-05-23T11:50:07.656Z,11.00
2019-05-23T11:51:07.738Z,9.50
2019-05-23T11:52:07.578Z,8.50
2019-05-23T11:53:07.507Z,8.50
2019-05-23T11:54:09.700Z,12.20
2019-05-23T11:55:07.502Z,11.30
2019-05-23T11:56:07.562Z,9.30
2019-05-23T11:57:07.506Z,11.50
2019-05-23T11:58:07.431Z,11.00
2019-05-23T11:59:07.538Z,14.60
2019-05-23T12:00:07.414Z,11.80
2019-05-23T12:01:07.700Z,7.70
2019-05-23T12:02:07.481Z,9.20
2019-05-23T12:03:07.456Z,9.00
2019-05-23T12:04:07.440Z,9.10
2019-05-23T12:05:07.541Z,11.30
2019-05-23T12:06:07.344Z,11.10
2019-05-23T12:07:07.544Z,10.20
2019-05-23T12:08:07.321Z,8.30
2019-05-23T12:09:07.504Z,8.60
2019-05-23T12:10:07.332Z,13.30
2019-05-23T12:11:07.735Z,10.60
2019-05-23T12:12:07.332Z,9.30
2019-05-23T12:13:07.524Z,9.30
2019-05-23T12:14:07.258Z,13.60
2019-05-23T12:15:07.547Z,8.60
2019-05-23T12:16:07.260Z,7.30
2019-05-23T12:17:08.712Z,7.60
2019-05-23T12:18:07.210Z,8.20
2019-05-23T12:19:07.594Z,9.20
2019-05-23T12:20:07.201Z,9.60
2019-05-23T12:21:07.501Z,8.90
2019-05-23T12:22:07.218Z,7.40
2019-05-23T12:23:10.968Z,9.70
2019-05-23T12:24:07.201Z,9.50
2019-05-23T12:25:20.875Z,8.60
2019-05-23T12:26:08.118Z,9.50
2019-05-23T12:27:07.195Z,10.60
2019-05-23T12:28:07.172Z,10.00
2019-05-23T12:29:07.555Z,9.10
2019-05-23T12:30:07.090Z,10.70
2019-05-23T12:31:07.563Z,12.80
2019-05-23T12:32:07.082Z,9.40
2019-05-23T12:33:07.544Z,10.20
2019-05-23T12:34:07.060Z,12.60
2019-05-23T12:35:10.938Z,9.60
2019-05-23T12:36:07.092Z,10.00
2019-05-23T12:37:19.077Z,9.00
2019-05-23T12:38:08.024Z,8.70
2019-05-23T12:39:07.091Z,9.50
2019-05-23T12:40:07.028Z,11.50
2019-05-23T12:41:07.027Z,9.30
2019-05-23T12:42:06.960Z,8.30
2019-05-23T12:43:07.078Z,8.80
2019-05-23T12:44:06.963Z,9.40
2019-05-23T12:46:08.172Z,10.30
2019-05-23T12:48:08.122Z,10.30
2019-05-23T12:50:08.051Z,8.30
2019-05-23T12:51:09.324Z,7.70
2019-05-23T12:52:06.881Z,8.90
2019-05-23T12:53:08.358Z,10.30
2019-05-23T12:54:06.843Z,10.00
2019-05-23T12:55:08.577Z,10.50
2019-05-23T12:56:06.832Z,8.60
2019-05-23T12:57:08.557Z,9.90
2019-05-23T12:58:06.831Z,8.60
2019-05-23T12:59:08.642Z,8.80
2019-05-23T13:00:06.804Z,11.20
2019-05-23T13:01:08.687Z,11.60
2019-05-23T13:02:06.755Z,11.60